createdAt,value
2023-02-07T00:02:46.146Z,17.95
2023-02-07T00:06:09.271Z,17.12
2023-02-07T00:09:31.700Z,16.30
2023-02-07T00:12:54.187Z,16.50
2023-02-07T00:16:18.096Z,16.50
2023-02-07T00:19:40.945Z,16.70
2023-02-07T00:23:03.293Z,15.65
2023-02-07T00:26:27.071Z,18.40
2023-02-07T00:29:49.241Z,16.45
2023-02-07T00:33:14.974Z,15.88
2023-02-07T00:36:38.220Z,14.40
2023-02-07T00:40:00.844Z,15.20
2023-02-07T00:43:29.677Z,14.75
2023-02-07T00:46:52.862Z,14.73
2023-02-07T00:50:16.927Z,12.23
2023-02-07T00:53:40.817Z,10.50
2023-02-07T00:57:03.447Z,11.60
2023-02-07T01:00:25.937Z,14.05
2023-02-07T01:03:48.448Z,10.32
2023-02-07T01:07:12.936Z,12.70
2023-02-07T01:10:36.808Z,11.30
2023-02-07T01:14:00.129Z,11.10
2023-02-07T01:17:22.613Z,17.12
2023-02-07T01:20:45.184Z,12.13
2023-02-07T01:24:09.300Z,12.27
2023-02-07T01:27:32.149Z,17.98
2023-02-07T01:30:54.782Z,12.93
2023-02-07T01:34:17.572Z,14.30
2023-02-07T01:37:40.138Z,13.27
2023-02-07T01:41:05.835Z,13.02
2023-02-07T01:45:03.918Z,12.67
2023-02-07T01:48:29.065Z,11.15
2023-02-07T01:51:55.353Z,10.98
2023-02-07T01:55:21.222Z,11.05
2023-02-07T01:58:45.167Z,10.30
2023-02-07T02:02:07.847Z,11.48
2023-02-07T02:05:32.240Z,11.30
2023-02-07T02:08:56.285Z,10.80
2023-02-07T02:12:40.554Z,10.77
2023-02-07T02:16:07.718Z,12.00
2023-02-07T02:20:18.739Z,11.65
2023-02-07T02:23:44.699Z,11.85
2023-02-07T02:27:09.727Z,11.77
2023-02-07T02:30:42.003Z,11.95
2023-02-07T02:34:06.274Z,11.80
2023-02-07T02:37:31.750Z,11.88
2023-02-07T02:40:56.763Z,11.53
2023-02-07T02:44:21.951Z,10.27
2023-02-07T02:47:46.513Z,11.38
2023-02-07T02:51:10.718Z,10.82
2023-02-07T02:54:34.353Z,11.20
2023-02-07T02:58:02.331Z,10.70
2023-02-07T03:01:25.953Z,11.95
2023-02-07T03:04:58.449Z,12.13
2023-02-07T03:08:27.226Z,13.17
2023-02-07T03:11:52.532Z,13.13
2023-02-07T03:15:17.299Z,13.35
2023-02-07T03:18:44.924Z,13.20
2023-02-07T03:22:10.869Z,12.60
2023-02-07T03:25:38.369Z,12.43
2023-02-07T03:29:01.234Z,11.00
2023-02-07T03:32:25.331Z,13.60
2023-02-07T03:35:50.043Z,14.83
2023-02-07T03:39:12.501Z,14.48
2023-02-07T03:42:37.080Z,14.52
2023-02-07T03:45:59.881Z,14.95
2023-02-07T03:49:23.096Z,16.77
2023-02-07T03:52:45.782Z,15.25
2023-02-07T03:56:08.705Z,15.93
2023-02-07T03:59:33.176Z,21.80
2023-02-07T04:02:56.527Z,18.63
2023-02-07T04:06:19.066Z,22.75
2023-02-07T04:09:41.630Z,21.15
2023-02-07T04:13:04.361Z,19.05
2023-02-07T04:16:28.486Z,19.77
2023-02-07T04:19:51.482Z,18.80
2023-02-07T04:23:14.016Z,17.17
2023-02-07T04:26:37.119Z,19.58
2023-02-07T04:29:59.523Z,19.87
2023-02-07T04:33:23.870Z,19.02
2023-02-07T04:36:46.137Z,18.70
2023-02-07T04:40:09.589Z,18.73
2023-02-07T04:43:32.141Z,16.33
2023-02-07T04:46:54.817Z,18.45
2023-02-07T04:50:19.126Z,17.98
2023-02-07T04:53:41.784Z,18.12
2023-02-07T04:57:04.386Z,18.97
2023-02-07T05:00:26.802Z,16.75
2023-02-07T05:03:49.162Z,15.93
2023-02-07T05:07:12.950Z,14.70
2023-02-07T05:10:35.569Z,15.77
2023-02-07T05:13:58.218Z,15.32
2023-02-07T05:17:20.612Z,18.65
2023-02-07T05:20:43.076Z,16.42
2023-02-07T05:24:07.477Z,16.83
2023-02-07T05:27:30.766Z,16.33
2023-02-07T05:30:54.969Z,15.50
2023-02-07T05:34:16.939Z,14.25
2023-02-07T05:37:39.210Z,14.13
2023-02-07T05:41:03.031Z,11.65
2023-02-07T05:44:25.395Z,13.60
2023-02-07T05:47:47.668Z,14.07
2023-02-07T05:51:10.337Z,17.07
2023-02-07T05:54:33.401Z,15.40
2023-02-07T05:57:57.241Z,14.57
2023-02-07T06:01:19.745Z,16.67
2023-02-07T06:04:42.723Z,17.87
2023-02-07T06:08:05.394Z,16.83
2023-02-07T06:11:28.388Z,17.12
2023-02-07T06:14:52.325Z,16.65
2023-02-07T06:18:15.346Z,15.40
2023-02-07T06:21:46.457Z,15.70
2023-02-07T06:25:11.980Z,16.02
2023-02-07T06:28:34.539Z,15.43
2023-02-07T06:31:58.984Z,17.43
2023-02-07T06:35:21.631Z,16.85
2023-02-07T06:38:44.734Z,15.65
2023-02-07T06:42:07.179Z,15.70
2023-02-07T06:45:30.340Z,17.77
2023-02-07T06:48:54.416Z,15.88
2023-02-07T06:52:17.356Z,17.17
2023-02-07T06:55:40.916Z,19.75
2023-02-07T06:59:03.787Z,23.37
2023-02-07T07:02:26.595Z,21.75
2023-02-07T07:05:50.789Z,22.60
2023-02-07T07:09:13.712Z,23.12
2023-02-07T07:12:36.532Z,23.03
2023-02-07T07:15:59.140Z,22.75
2023-02-07T07:19:22.257Z,22.42
2023-02-07T07:22:46.431Z,23.48
2023-02-07T07:26:09.271Z,23.20
2023-02-07T07:29:31.852Z,20.10
2023-02-07T07:32:54.391Z,20.67
2023-02-07T07:36:17.052Z,19.27
2023-02-07T07:39:41.043Z,18.13
2023-02-07T07:43:03.377Z,17.65
2023-02-07T07:46:26.464Z,18.00
2023-02-07T07:49:50.435Z,15.75
2023-02-07T07:53:13.939Z,15.20
2023-02-07T07:56:37.907Z,13.30
2023-02-07T08:00:00.370Z,13.70
2023-02-07T08:03:23.115Z,10.68
2023-02-07T08:06:45.841Z,12.60
2023-02-07T08:10:08.465Z,10.93
2023-02-07T08:13:33.436Z,11.20
2023-02-07T08:16:56.059Z,13.65
2023-02-07T08:20:19.150Z,14.23
2023-02-07T08:23:41.834Z,12.20
2023-02-07T08:27:04.576Z,14.73
2023-02-07T08:30:28.420Z,10.80
2023-02-07T08:33:51.920Z,11.97
2023-02-07T08:37:14.836Z,10.63
2023-02-07T08:40:38.030Z,13.30
2023-02-07T08:44:00.593Z,12.60
2023-02-07T08:47:24.454Z,12.27
2023-02-07T08:50:46.720Z,13.50
2023-02-07T08:54:09.475Z,12.50
2023-02-07T08:57:31.984Z,13.68
2023-02-07T09:00:54.678Z,16.27
2023-02-07T09:04:18.672Z,14.82
2023-02-07T09:07:41.447Z,12.25
2023-02-07T09:11:09.161Z,14.05
2023-02-07T09:14:32.160Z,12.35
2023-02-07T09:17:54.307Z,13.33
2023-02-07T09:21:19.088Z,12.73
2023-02-07T09:24:41.354Z,13.70
2023-02-07T09:28:04.284Z,12.05
2023-02-07T09:31:26.718Z,11.87
2023-02-07T09:34:50.256Z,13.62
2023-02-07T09:38:15.616Z,13.25
2023-02-07T09:41:41.910Z,15.05
2023-02-07T09:45:06.269Z,13.70
2023-02-07T09:48:31.396Z,14.27
2023-02-07T09:51:54.248Z,15.48
2023-02-07T09:55:19.834Z,13.05
2023-02-07T09:58:44.516Z,12.53
2023-02-07T10:02:16.823Z,10.38
2023-02-07T10:05:43.408Z,11.52
2023-02-07T10:09:07.283Z,12.88
2023-02-07T10:12:58.155Z,10.80
2023-02-07T10:16:27.211Z,11.40
2023-02-07T10:19:55.856Z,11.48
2023-02-07T10:23:28.599Z,10.90
2023-02-07T10:26:54.211Z,12.05
2023-02-07T10:30:19.810Z,9.20
2023-02-07T10:33:44.292Z,8.13
2023-02-07T10:37:18.264Z,10.95
2023-02-07T10:40:42.608Z,9.07
2023-02-07T10:44:05.176Z,8.23
2023-02-07T10:47:30.709Z,6.32
2023-02-07T10:50:52.838Z,6.72
2023-02-07T10:54:16.841Z,6.62
2023-02-07T10:57:40.672Z,7.00
2023-02-07T11:01:04.684Z,7.60
2023-02-07T11:04:35.454Z,7.65
2023-02-07T11:07:59.491Z,7.65
2023-02-07T11:11:27.541Z,5.97
2023-02-07T11:15:01.384Z,9.07
2023-02-07T11:18:38.792Z,12.55
2023-02-07T11:22:10.380Z,13.00
2023-02-07T11:25:34.418Z,10.80
2023-02-07T11:29:03.822Z,10.57
2023-02-07T11:32:27.133Z,10.30
2023-02-07T11:36:07.258Z,11.68
2023-02-07T11:39:31.048Z,9.07
2023-02-07T11:43:03.672Z,6.80
2023-02-07T11:46:32.659Z,10.90
2023-02-07T11:49:55.946Z,10.57
2023-02-07T11:53:24.528Z,7.40
2023-02-07T11:56:53.660Z,6.80
2023-02-07T12:00:20.068Z,5.85
2023-02-07T12:03:43.119Z,5.32
2023-02-07T12:07:08.898Z,6.00
2023-02-07T12:10:32.323Z,5.15
2023-02-07T12:13:58.128Z,5.57
2023-02-07T12:17:24.710Z,5.70
2023-02-07T12:20:49.141Z,6.20
2023-02-07T12:24:12.542Z,5.72
2023-02-07T12:27:36.824Z,6.10
2023-02-07T12:31:04.093Z,5.85
2023-02-07T12:34:30.977Z,6.20
2023-02-07T12:37:56.382Z,5.87
2023-02-07T12:41:24.487Z,7.18
2023-02-07T12:44:50.421Z,7.77
2023-02-07T12:48:18.272Z,7.47
2023-02-07T12:51:46.453Z,7.60
2023-02-07T12:55:16.499Z,7.47
2023-02-07T12:58:50.058Z,7.13
2023-02-07T13:02:22.436Z,7.20
2023-02-07T13:05:51.966Z,6.80
2023-02-07T13:09:17.875Z,6.40
2023-02-07T13:12:42.381Z,6.77
2023-02-07T13:16:07.410Z,6.07
2023-02-07T13:19:32.808Z,6.40
2023-02-07T13:22:58.049Z,6.95
2023-02-07T13:26:21.421Z,5.93
2023-02-07T13:29:44.116Z,7.33
2023-02-07T13:33:19.520Z,7.22
2023-02-07T13:36:43.276Z,6.72
2023-02-07T13:40:13.795Z,6.65
2023-02-07T13:43:43.520Z,7.40
2023-02-07T13:47:19.464Z,8.07
2023-02-07T13:50:47.728Z,6.75
2023-02-07T13:54:16.612Z,9.20
2023-02-07T13:58:02.329Z,8.32
2023-02-07T14:01:25.466Z,8.57
2023-02-07T14:04:50.103Z,6.32
2023-02-07T14:08:24.917Z,6.10
2023-02-07T14:11:48.767Z,8.18
2023-02-07T14:15:48.704Z,5.75
2023-02-07T14:19:13.444Z,8.17
2023-02-07T14:23:06.008Z,6.85
2023-02-07T14:26:44.383Z,8.27
2023-02-07T14:30:28.521Z,9.15
2023-02-07T14:34:10.479Z,8.00
2023-02-07T14:37:46.408Z,7.43
2023-02-07T14:41:11.813Z,7.95
2023-02-07T14:44:35.842Z,9.35
2023-02-07T14:47:58.534Z,9.07
2023-02-07T14:51:23.549Z,7.72
2023-02-07T14:54:48.970Z,7.78
2023-02-07T14:58:14.105Z,9.05
2023-02-07T15:01:37.066Z,8.63
2023-02-07T15:04:59.765Z,7.20
2023-02-07T15:08:23.708Z,7.25
2023-02-07T15:11:51.487Z,7.97
2023-02-07T15:15:21.708Z,5.85
2023-02-07T15:18:46.082Z,6.73
2023-02-07T15:22:23.988Z,6.75
2023-02-07T15:25:47.924Z,5.93
2023-02-07T15:29:20.703Z,7.18
2023-02-07T15:32:46.290Z,6.90
2023-02-07T15:36:28.182Z,7.20
2023-02-07T15:39:50.328Z,7.07
2023-02-07T15:43:28.258Z,6.85
2023-02-07T15:46:53.461Z,6.80
2023-02-07T15:50:22.239Z,11.12
2023-02-07T15:53:44.688Z,11.90
2023-02-07T15:57:07.209Z,11.57
2023-02-07T16:00:30.286Z,12.85
2023-02-07T16:03:56.103Z,9.70
2023-02-07T16:07:19.444Z,10.88
2023-02-07T16:10:42.559Z,10.82
2023-02-07T16:14:16.086Z,10.00
2023-02-07T16:17:42.036Z,11.13
2023-02-07T16:21:06.489Z,12.32
2023-02-07T16:24:29.406Z,11.40
2023-02-07T16:27:52.715Z,12.73
2023-02-07T16:31:16.270Z,19.83
2023-02-07T16:34:50.370Z,30.07
2023-02-07T16:38:21.878Z,28.40
2023-02-07T16:41:46.010Z,39.95
2023-02-07T16:45:16.538Z,42.70
2023-02-07T16:48:39.492Z,46.73
2023-02-07T16:52:02.651Z,40.95
2023-02-07T16:55:27.702Z,32.35
2023-02-07T16:58:53.368Z,26.65
2023-02-07T17:02:16.700Z,23.70
2023-02-07T17:05:39.367Z,25.55
2023-02-07T17:09:02.401Z,25.77
2023-02-07T17:12:27.108Z,24.95
2023-02-07T17:15:49.743Z,34.38
2023-02-07T17:19:13.817Z,37.67
2023-02-07T17:22:38.016Z,39.38
2023-02-07T17:26:01.488Z,32.22
2023-02-07T17:29:26.561Z,31.17
2023-02-07T17:32:50.304Z,31.70
2023-02-07T17:36:15.763Z,35.70
2023-02-07T17:39:40.504Z,35.90
2023-02-07T17:43:05.378Z,36.20
2023-02-07T17:46:33.967Z,37.63
2023-02-07T17:49:58.612Z,43.70
2023-02-07T17:53:23.449Z,44.25
2023-02-07T17:56:47.774Z,45.58
2023-02-07T18:00:18.520Z,46.75
2023-02-07T18:03:44.447Z,52.60
2023-02-07T18:07:09.138Z,52.22
2023-02-07T18:10:34.645Z,55.75
2023-02-07T18:13:59.558Z,57.38
2023-02-07T18:17:26.065Z,62.30
2023-02-07T18:20:53.581Z,55.63
2023-02-07T18:24:21.380Z,58.55
2023-02-07T18:27:47.084Z,56.80
2023-02-07T18:31:19.761Z,59.30
2023-02-07T18:34:45.221Z,59.30
2023-02-07T18:38:12.411Z,57.97
2023-02-07T18:41:36.839Z,54.03
2023-02-07T18:45:08.886Z,53.33
2023-02-07T18:48:34.310Z,48.22
2023-02-07T18:52:00.570Z,48.55
2023-02-07T18:55:26.582Z,53.00
2023-02-07T18:58:53.449Z,53.30
2023-02-07T19:02:19.469Z,48.00
2023-02-07T19:05:44.849Z,45.90
2023-02-07T19:09:15.676Z,46.60
2023-02-07T19:12:41.849Z,44.50
2023-02-07T19:16:07.244Z,40.03
2023-02-07T19:19:33.348Z,42.13
2023-02-07T19:22:56.929Z,41.88
2023-02-07T19:26:24.641Z,44.17
2023-02-07T19:29:55.665Z,40.28
2023-02-07T19:33:22.502Z,42.25
2023-02-07T19:36:50.843Z,40.53
2023-02-07T19:40:16.794Z,41.90
2023-02-07T19:43:42.434Z,38.93
2023-02-07T19:47:10.618Z,36.88
2023-02-07T19:50:36.215Z,35.65
2023-02-07T19:54:01.749Z,35.05
2023-02-07T19:57:27.360Z,33.40
2023-02-07T20:00:52.617Z,32.42
2023-02-07T20:04:18.296Z,31.05
2023-02-07T20:07:42.956Z,35.23
2023-02-07T20:11:07.644Z,33.95
2023-02-07T20:14:32.564Z,33.10
2023-02-07T20:17:57.918Z,35.45
2023-02-07T20:21:26.043Z,36.40
2023-02-07T20:24:50.292Z,37.72
2023-02-07T20:28:15.352Z,39.75
2023-02-07T20:31:40.871Z,38.88
2023-02-07T20:35:05.002Z,38.83
2023-02-07T20:38:31.118Z,37.00
2023-02-07T20:41:55.935Z,36.10
2023-02-07T20:45:24.740Z,37.15
2023-02-07T20:48:48.649Z,38.08
2023-02-07T20:52:14.028Z,45.85
2023-02-07T20:55:38.827Z,41.20
2023-02-07T20:59:03.852Z,39.45
2023-02-07T21:02:27.976Z,39.33
2023-02-07T21:05:53.441Z,35.63
2023-02-07T21:09:18.681Z,38.65
2023-02-07T21:12:47.756Z,35.65
2023-02-07T21:16:10.911Z,37.63
2023-02-07T21:19:34.194Z,38.33
2023-02-07T21:22:59.387Z,36.97
2023-02-07T21:26:24.595Z,43.67
2023-02-07T21:29:48.761Z,50.70
2023-02-07T21:33:12.177Z,47.92
2023-02-07T21:36:38.546Z,41.53
2023-02-07T21:40:01.811Z,36.38
2023-02-07T21:43:24.779Z,35.57
2023-02-07T21:46:51.251Z,34.58
2023-02-07T21:50:14.471Z,37.20
2023-02-07T21:53:37.561Z,32.35
2023-02-07T21:57:00.031Z,33.15
2023-02-07T22:00:23.006Z,34.30
2023-02-07T22:03:47.748Z,31.62
2023-02-07T22:07:10.285Z,28.30
2023-02-07T22:10:33.273Z,27.92
2023-02-07T22:13:55.699Z,24.10
2023-02-07T22:17:19.036Z,24.92
2023-02-07T22:20:42.946Z,25.88
2023-02-07T22:24:06.605Z,24.53
2023-02-07T22:27:28.808Z,26.00
2023-02-07T22:30:51.914Z,23.42
2023-02-07T22:34:14.691Z,26.33
2023-02-07T22:37:39.283Z,24.77
2023-02-07T22:41:03.948Z,27.08
2023-02-07T22:44:26.762Z,19.42
2023-02-07T22:47:49.207Z,20.15
2023-02-07T22:51:13.029Z,20.53
2023-02-07T22:54:37.253Z,16.67
2023-02-07T22:58:00.266Z,16.95
2023-02-07T23:01:24.567Z,16.33
2023-02-07T23:04:47.872Z,16.02
2023-02-07T23:08:10.086Z,16.08
2023-02-07T23:11:33.948Z,15.38
2023-02-07T23:14:56.430Z,16.40
2023-02-07T23:18:19.583Z,16.85
2023-02-07T23:21:42.155Z,19.10
2023-02-07T23:25:04.650Z,20.30
2023-02-07T23:28:29.184Z,19.73
2023-02-07T23:31:51.945Z,18.15
2023-02-07T23:35:14.439Z,17.63
2023-02-07T23:38:36.959Z,19.33
2023-02-07T23:41:59.267Z,19.25
2023-02-07T23:45:23.054Z,16.05
2023-02-07T23:48:45.680Z,16.80
2023-02-07T23:52:08.261Z,15.70
2023-02-07T23:55:30.750Z,14.50
2023-02-07T23:58:53.555Z,14.48
